Snow/Ice From: 23-10-2018 22:46 Until: 24-10-2018 08:00 warning for: Snow/Ice Level: Yellow info button
suomi:
Liikennesää: Ajokeli on huono tienpintojen jäätymisen vuoksi.

svenska:
Trafikvädret: Väglaget är dåligt p.g.a. tillfrysning av vägytor.

english:
Traffic weather warning: Bad road conditions are expected because of ice-covered roads. 


Thunder radar more information blitzortung!


Löydät sääaseman tiedot myös:

European Weather Network

Finland Weather Exchange

Weather Underground

AWEKAS



Weather Underground säähistoriasivu

Päivittäin yhteenveto Kesäkuu 1, 2017 Yksiköt:  Englantilaiset    Metriset   Molemmat
« Edellinen Päivä
Seuraava Päivä »
Päivittäin Viikoittain Kuukausittain Vuosittain Mukautettu
  Korkea: Matala: Keskiarvo:
Lämpötila: TemperatureF °F 36.3 °F 43.1 °F
Kastepiste: DewpointF °F 25.3 °F 30.6 °F
Kosteus: Humidity % 43 % 62 %
Tuulen nopeus: WindSpeedMPH mph 0.0 mph 1.6 mph
Tuulenpuuska: WindSpeedGustMPH mph - -
Tuuli:- - NW
Ilmanpaine: PressureIn in 29.50 in -
Sade: 0.00 in    
Historical Graphs
 
 
Taulukkotiedot Kesäkuu 1, 2017
Aika Lämpötila Kastepiste Ilmanpaine Tuuli Tuulen nopeus Tuulenpuuska Kosteus Sademäärä (tunneittain)
TemperatureF °F DewpointF °F PressureIn in Calm     Humidity % HourlyPrecipIn in
00:00 41.7 °F 33.6 °F 29.50 in Calm   4.0 mph 73 % 0.00 in
00:15 41.4 °F 33.4 °F 29.50 in Calm   5.0 mph 73 % 0.00 in
00:30 41.4 °F 33.3 °F 29.51 in Calm   6.0 mph 73 % 0.00 in
00:45 42.1 °F 32.7 °F 29.50 in NW 3.0 mph 8.0 mph 69 % 0.00 in
01:00 41.4 °F 32.5 °F 29.50 in Calm   1.0 mph 71 % 0.00 in
01:15 39.7 °F 31.8 °F 29.50 in Calm   3.0 mph 73 % 0.00 in
01:30 39.0 °F 32.2 °F 29.50 in Calm     76 % 0.00 in
01:45 39.7 °F 32.2 °F 29.51 in WNW 3.0 mph 9.0 mph 74 % 0.00 in
02:00 41.0 °F 33.3 °F 29.50 in NW 1.0 mph 7.0 mph 74 % 0.00 in
02:15 40.6 °F 33.3 °F 29.50 in Calm   2.0 mph 75 % 0.00 in
02:30 39.6 °F 32.9 °F 29.50 in WNW 1.0 mph 3.0 mph 77 % 0.00 in
02:45 38.8 °F 32.9 °F 29.50 in Calm   1.0 mph 79 % 0.00 in
03:00 38.5 °F 32.7 °F 29.50 in Calm   1.0 mph 80 % 0.00 in
03:15 37.8 °F 32.5 °F 29.51 in Calm   4.0 mph 81 % 0.00 in
03:30 38.1 °F 33.3 °F 29.51 in Calm   3.0 mph 82 % 0.00 in
03:45 38.3 °F 33.6 °F 29.51 in NW 1.0 mph 4.0 mph 83 % 0.00 in
04:00 38.1 °F 33.4 °F 29.51 in NW 1.0 mph 4.0 mph 83 % 0.00 in
04:15 37.6 °F 33.1 °F 29.51 in Calm   1.0 mph 84 % 0.00 in
04:30 36.7 °F 32.9 °F 29.51 in Calm     86 % 0.00 in
04:45 36.3 °F 32.9 °F 29.51 in Calm     87 % 0.00 in
05:15 38.5 °F 34.9 °F 29.51 in NW 1.0 mph 4.0 mph 87 % 0.00 in
05:30 39.4 °F 34.9 °F 29.51 in NW 1.0 mph 5.0 mph 84 % 0.00 in
05:45 39.9 °F 35.2 °F 29.51 in NW 3.0 mph 7.0 mph 83 % 0.00 in
06:00 40.3 °F 35.4 °F 29.51 in NW 2.0 mph 7.0 mph 83 % 0.00 in
06:15 40.6 °F 35.8 °F 29.52 in NW 3.0 mph 10.0 mph 83 % 0.00 in
06:30 40.8 °F 35.8 °F 29.51 in NNW 2.0 mph 5.0 mph 82 % 0.00 in
06:45 40.8 °F 35.8 °F 29.52 in NW 4.0 mph 9.0 mph 82 % 0.00 in
07:00 40.8 °F 35.8 °F 29.52 in NW 3.0 mph 10.0 mph 82 % 0.00 in
07:15 41.2 °F 35.8 °F 29.52 in NW 4.0 mph 11.0 mph 81 % 0.00 in
07:30 41.0 °F 35.2 °F 29.53 in NW 4.0 mph 12.0 mph 80 % 0.00 in
07:45 41.2 °F 35.4 °F 29.53 in NW 4.0 mph 13.0 mph 80 % 0.00 in
08:00 41.9 °F 35.2 °F 29.53 in North 3.0 mph 7.0 mph 77 % 0.00 in
08:15 42.4 °F 35.1 °F 29.54 in NW 4.0 mph 12.0 mph 75 % 0.00 in
08:30 42.1 °F 35.1 °F 29.54 in NW 5.0 mph 10.0 mph 76 % 0.00 in
08:45 42.3 °F 34.5 °F 29.54 in NNW 3.0 mph 5.0 mph 74 % 0.00 in
09:00 41.7 °F 33.4 °F 29.54 in NW 4.0 mph 10.0 mph 72 % 0.00 in
09:30 44.8 °F 34.2 °F 29.54 in NNW 3.0 mph 10.0 mph 66 % 0.00 in
09:45 44.8 °F 32.5 °F 29.54 in NNW 4.0 mph 16.0 mph 62 % 0.00 in
10:00 44.2 °F 32.4 °F 29.54 in NNW 4.0 mph 11.0 mph 63 % 0.00 in
10:15 44.1 °F 32.5 °F 29.54 in NNW 4.0 mph 10.0 mph 64 % 0.00 in
10:30 45.5 °F 32.4 °F 29.55 in NNW 4.0 mph 9.0 mph 60 % 0.00 in
10:45 46.0 °F 32.9 °F 29.55 in NW 5.0 mph 12.0 mph 60 % 0.00 in
11:00 46.9 °F 32.9 °F 29.55 in NW 4.0 mph 12.0 mph 58 % 0.00 in
11:15 46.0 °F 32.2 °F 29.56 in NNW 4.0 mph 10.0 mph 58 % 0.00 in
11:30 47.3 °F 32.9 °F 29.56 in North 3.0 mph 8.0 mph 57 % 0.00 in
11:45 47.5 °F 32.2 °F 29.56 in North 4.0 mph 9.0 mph 55 % 0.00 in
12:00 43.7 °F 33.1 °F 29.57 in NW 5.0 mph 14.0 mph 66 % 0.00 in
12:15 46.0 °F 32.5 °F 29.57 in NW 5.0 mph 13.0 mph 59 % 0.00 in
12:30 47.3 °F 32.4 °F 29.57 in NNW 5.0 mph 10.0 mph 56 % 0.00 in
12:45 47.5 °F 29.7 °F 29.58 in NNW 4.0 mph 11.0 mph 50 % 0.00 in
13:00 47.1 °F 28.9 °F 29.59 in NNW 5.0 mph 16.0 mph 49 % 0.00 in
13:15 48.2 °F 27.9 °F 29.58 in NNW 5.0 mph 12.0 mph 45 % 0.00 in
13:30 48.2 °F 28.9 °F 29.59 in NW 5.0 mph 15.0 mph 47 % 0.00 in
13:45 47.1 °F 28.4 °F 29.59 in North 5.0 mph 10.0 mph 48 % 0.00 in
14:00 48.4 °F 28.0 °F 29.59 in NNW 5.0 mph 11.0 mph 45 % 0.00 in
14:15 48.2 °F 28.4 °F 29.60 in NNW 3.0 mph 10.0 mph 46 % 0.00 in
14:30 48.0 °F 28.2 °F 29.60 in North 4.0 mph 7.0 mph 46 % 0.00 in
14:45 47.5 °F 27.7 °F 29.60 in NNW 5.0 mph 11.0 mph 46 % 0.00 in
15:00 47.8 °F 29.7 °F 29.61 in North 1.0 mph 6.0 mph 49 % 0.00 in
15:15 47.5 °F 29.3 °F 29.61 in Calm     49 % 0.00 in
15:30 48.4 °F 29.1 °F 29.62 in Calm     47 % 0.00 in
15:45 48.6 °F 29.7 °F 29.62 in Calm     48 % 0.00 in
16:00 47.7 °F 28.9 °F 29.62 in Calm     48 % 0.00 in
16:15 49.3 °F 28.8 °F 29.63 in Calm     45 % 0.00 in
16:30 48.0 °F 28.8 °F 29.63 in Calm     47 % 0.00 in
16:45 46.6 °F 28.4 °F 29.63 in Calm     49 % 0.00 in
17:00 46.2 °F 26.6 °F 29.64 in Calm     46 % 0.00 in
17:15 46.6 °F 26.8 °F 29.64 in Calm     46 % 0.00 in
17:30 47.5 °F 27.7 °F 29.65 in Calm     46 % 0.00 in
17:45 47.8 °F 27.0 °F 29.65 in Calm     44 % 0.00 in
18:00 47.5 °F 26.6 °F 29.65 in Calm     44 % 0.00 in
18:15 47.1 °F 26.8 °F 29.65 in Calm     45 % 0.00 in
18:30 46.8 °F 25.5 °F 29.66 in Calm     43 % 0.00 in
18:45 46.9 °F 27.3 °F 29.66 in Calm     46 % 0.00 in
19:00 47.1 °F 26.8 °F 29.66 in Calm     45 % 0.00 in
19:15 46.9 °F 27.1 °F 29.66 in Calm     46 % 0.00 in
19:30 46.8 °F 26.4 °F 29.67 in Calm     45 % 0.00 in
19:45 46.0 °F 25.3 °F 29.67 in Calm     44 % 0.00 in
20:00 45.7 °F 26.6 °F 29.67 in Calm     47 % 0.00 in
20:15 45.3 °F 26.2 °F 29.68 in Calm     47 % 0.00 in
20:30 45.1 °F 27.1 °F 29.68 in Calm     49 % 0.00 in
20:45 45.0 °F 25.3 °F 29.68 in Calm     46 % 0.00 in
21:00 44.4 °F 26.4 °F 29.68 in Calm     49 % 0.00 in
21:15 43.9 °F 26.4 °F 29.69 in Calm     50 % 0.00 in
21:30 43.9 °F 26.4 °F 29.69 in Calm     50 % 0.00 in
21:45 43.3 °F 26.4 °F 29.69 in Calm     51 % 0.00 in
22:00 42.8 °F 26.4 °F 29.69 in Calm     52 % 0.00 in
22:15 42.3 °F 26.4 °F 29.69 in Calm     53 % 0.00 in
22:30 41.7 °F 29.7 °F 29.70 in Calm     62 % 0.00 in
22:45 41.0 °F 31.3 °F 29.70 in Calm     68 % 0.00 in
23:00 40.3 °F 31.6 °F 29.70 in Calm     71 % 0.00 in
23:15 39.6 °F 31.6 °F 29.71 in Calm     73 % 0.00 in
23:30 39.2 °F 32.0 °F 29.71 in Calm     75 % 0.00 in
23:45 38.7 °F 32.2 °F 29.71 in Calm     77 % 0.00 in
Esan sääasema
Terveisin Weather Underground - 2.75 mb

Alkuperäinen skripti  Jim McMurry - jmcmurry@mwt.net Sovitettu myös templatelle  Wim van der Kuil - Leuven-Template.eu

Laitteet joita käytämme:

Sääasema
Davis VP2

Sääasemaohjelma
Cumulus

Sääaseman tietokone
Asus EeePC

Palveluntarjoaja
Suncomet

Davis VP2

Cumulus

Asus EeePC

Suncomet